Time;durP1;ratioP1;P1;durP2;ratioP2;P2;SDS_P1;SDS_P2;PMS_P1;PMS_P2;Temp;Humidity;BMP_temperature;BMP_pressure;BME280_temperature;BME280_humidity;BME280_pressure;Samples;Min_cycle;Max_cycle;Signal;HPM_P1;HPM_P2
2022/09/30 00:01:18;;;;;;;7.93;7.13;;;;;;;8.98;70.35;100649.88;4989306;28;20054;-47
2022/09/30 00:03:43;;;;;;;12.85;7.97;;;;;;;8.89;70.32;100652.22;4977598;28;20243;-49
2022/09/30 00:06:11;;;;;;;10.73;8.27;;;;;;;8.97;70.60;100673.81;4999858;28;20399;-49
2022/09/30 00:08:37;;;;;;;14.52;7.80;;;;;;;8.95;70.11;100676.59;4954841;28;20054;-48
2022/09/30 00:11:06;;;;;;;10.75;8.43;;;;;;;9.02;69.91;100675.25;4987967;28;20042;-48
2022/09/30 00:13:34;;;;;;;11.00;8.05;;;;;;;8.95;70.14;100668.63;4989512;28;20466;-49
2022/09/30 00:16:00;;;;;;;10.95;7.82;;;;;;;8.87;70.13;100679.66;4977473;28;20053;-49
2022/09/30 00:18:27;;;;;;;9.15;7.82;;;;;;;8.83;70.31;100680.81;4993148;28;20064;-50
2022/09/30 00:20:52;;;;;;;11.00;8.15;;;;;;;8.89;70.27;100674.28;4987709;28;20108;-48
2022/09/30 00:23:21;;;;;;;9.68;8.45;;;;;;;8.85;69.89;100680.69;4989933;28;20058;-49
2022/09/30 00:25:47;;;;;;;9.15;8.18;;;;;;;8.76;70.61;100679.44;5000026;28;20040;-48
2022/09/30 00:28:13;;;;;;;11.07;7.45;;;;;;;8.66;70.44;100685.38;4994098;28;20485;-48
2022/09/30 00:30:41;;;;;;;9.60;8.45;;;;;;;8.70;70.31;100681.59;4972141;28;20030;-47
2022/09/30 00:33:07;;;;;;;9.27;8.38;;;;;;;8.67;70.42;100674.69;4947561;28;20035;-48
2022/09/30 00:35:32;;;;;;;8.60;7.90;;;;;;;8.61;70.42;100673.22;4984429;28;20515;-48
2022/09/30 00:37:59;;;;;;;8.93;8.02;;;;;;;8.42;71.01;100669.94;4992801;28;20026;-49
2022/09/30 00:40:25;;;;;;;10.35;8.55;;;;;;;8.47;70.75;100683.78;4975987;28;20192;-47
2022/09/30 00:42:50;;;;;;;9.63;8.45;;;;;;;8.55;71.00;100681.53;4971627;28;20057;-48
2022/09/30 00:45:20;;;;;;;11.95;8.45;;;;;;;8.56;70.46;100680.63;4987926;28;20061;-48
2022/09/30 00:48:20;;;;;;;10.68;8.68;;;;;;;8.55;70.57;100672.75;4988536;28;20370;-48
2022/09/30 00:50:54;;;;;;;11.88;8.30;;;;;;;8.48;70.83;100676.69;4978385;28;20033;-47
2022/09/30 00:53:28;;;;;;;11.85;8.15;;;;;;;8.44;70.68;100672.50;4971684;28;20038;-47
2022/09/30 00:56:10;;;;;;;10.80;8.35;;;;;;;8.46;70.70;100675.91;4995794;28;20414;-46
2022/09/30 00:59:11;;;;;;;11.60;9.15;;;;;;;8.48;70.50;100682.00;4989316;28;20045;-47
2022/09/30 01:01:41;;;;;;;14.10;8.95;;;;;;;8.41;70.90;100682.34;4988307;28;20026;-48
2022/09/30 01:04:20;;;;;;;9.38;8.35;;;;;;;8.33;70.64;100673.94;4971590;28;20052;-47
2022/09/30 01:06:46;;;;;;;11.30;8.98;;;;;;;8.30;71.42;100683.88;4971801;28;20434;-47
2022/09/30 01:09:17;;;;;;;10.50;8.90;;;;;;;8.33;71.41;100681.03;4989128;28;20047;-48
2022/09/30 01:11:47;;;;;;;13.90;9.90;;;;;;;8.27;71.13;100676.09;4961365;28;20043;-49
2022/09/30 01:14:22;;;;;;;13.30;10.52;;;;;;;8.16;71.43;100666.09;4971349;28;20034;-48
2022/09/30 01:17:05;;;;;;;11.73;9.90;;;;;;;8.12;71.67;100676.00;4987903;28;20022;-48
2022/09/30 01:19:46;;;;;;;11.20;10.07;;;;;;;8.19;71.74;100685.31;4973120;28;20061;-49
2022/09/30 01:22:30;;;;;;;13.75;10.10;;;;;;;8.18;71.60;100680.97;4988943;28;20030;-47
2022/09/30 01:25:07;;;;;;;11.98;9.25;;;;;;;8.19;71.52;100684.44;4988807;28;20030;-47
2022/09/30 01:28:14;;;;;;;15.18;9.55;;;;;;;8.20;71.64;100683.50;4972524;28;20092;-47
2022/09/30 01:30:58;;;;;;;10.82;9.20;;;;;;;8.08;71.59;100684.19;4996303;28;20038;-48
2022/09/30 01:33:43;;;;;;;10.18;9.10;;;;;;;8.06;71.80;100673.69;4991680;28;20042;-48
2022/09/30 01:36:28;;;;;;;10.18;9.10;;;;;;;8.06;71.81;100675.47;4991671;28;20045;-49
2022/09/30 01:39:33;;;;;;;11.38;9.45;;;;;;;8.04;71.90;100678.22;4995700;28;20033;-47
2022/09/30 01:42:22;;;;;;;11.25;10.02;;;;;;;7.99;72.02;100676.75;4990887;28;20203;-46
2022/09/30 01:45:01;;;;;;;15.45;10.02;;;;;;;7.94;71.98;100680.53;4992127;28;20035;-47
2022/09/30 01:47:42;;;;;;;20.20;10.75;;;;;;;7.88;72.12;100683.50;4992119;28;20067;-48
2022/09/30 01:50:24;;;;;;;14.80;10.45;;;;;;;7.86;72.22;100677.44;4989874;28;20030;-48
2022/09/30 01:53:17;;;;;;;13.95;10.35;;;;;;;7.91;71.81;100677.16;4975718;28;20030;-48
2022/09/30 01:55:52;;;;;;;16.25;10.85;;;;;;;7.76;72.09;100660.31;4990326;28;20117;-47
2022/09/30 01:58:53;;;;;;;14.52;10.02;;;;;;;7.87;72.00;100678.28;4991028;28;20038;-47
2022/09/30 02:01:30;;;;;;;14.07;11.13;;;;;;;7.77;72.50;100688.53;4994076;28;20038;-49
2022/09/30 02:04:00;;;;;;;14.10;10.82;;;;;;;7.76;72.48;100685.94;5000440;28;20461;-46
2022/09/30 02:06:33;;;;;;;12.38;11.18;;;;;;;7.77;72.32;100683.22;4991148;28;20042;-47
2022/09/30 02:09:05;;;;;;;17.30;11.02;;;;;;;7.65;72.72;100678.59;4996261;28;20065;-48
2022/09/30 02:11:35;;;;;;;13.68;11.15;;;;;;;7.54;73.00;100680.97;4990766;28;20056;-47
2022/09/30 02:14:27;;;;;;;15.10;11.57;;;;;;;7.65;72.61;100676.81;4990879;28;20035;-47
2022/09/30 02:17:02;;;;;;;14.10;11.30;;;;;;;7.55;72.76;100682.66;4990707;28;20038;-47
2022/09/30 02:19:41;;;;;;;14.65;11.80;;;;;;;7.58;73.04;100682.50;4999231;28;20026;-47
2022/09/30 02:22:13;;;;;;;13.30;11.90;;;;;;;7.40;73.67;100684.31;4990381;28;20041;-47
2022/09/30 02:24:42;;;;;;;16.40;11.63;;;;;;;7.47;73.31;100683.94;4973220;28;20041;-51
2022/09/30 02:27:16;;;;;;;12.27;10.95;;;;;;;7.49;72.88;100687.34;4990701;28;20048;-47
2022/09/30 02:29:49;;;;;;;13.45;11.52;;;;;;;7.43;73.27;100690.31;4990384;28;20030;-50
2022/09/30 02:32:25;;;;;;;16.20;11.80;;;;;;;7.42;73.50;100690.41;4973035;28;20034;-48
2022/09/30 02:34:59;;;;;;;13.27;11.77;;;;;;;7.49;73.54;100699.72;4973243;28;20037;-48
2022/09/30 02:37:34;;;;;;;12.65;10.85;;;;;;;7.41;73.45;100686.91;5001336;28;20034;-47
2022/09/30 02:40:05;;;;;;;15.50;11.63;;;;;;;7.40;73.48;100682.53;4982063;28;20079;-48
2022/09/30 02:42:32;;;;;;;14.85;12.43;;;;;;;7.45;73.36;100680.50;4989734;28;20457;-48
2022/09/30 02:45:02;;;;;;;13.35;12.02;;;;;;;7.33;73.78;100685.59;4990963;28;20035;-47
2022/09/30 02:47:37;;;;;;;18.77;12.13;;;;;;;7.39;73.63;100690.56;4974604;28;20369;-48
2022/09/30 02:50:21;;;;;;;15.32;11.63;;;;;;;7.38;73.46;100687.06;5010259;28;20032;-46
2022/09/30 02:53:22;;;;;;;13.93;11.70;;;;;;;7.19;74.34;100686.31;4973575;28;20499;-47
2022/09/30 02:56:15;;;;;;;15.20;11.32;;;;;;;7.28;73.71;100685.81;4967999;28;20050;-46
2022/09/30 02:58:42;;;;;;;15.13;13.43;;;;;;;7.22;74.12;100673.75;4995033;28;20033;-49
2022/09/30 03:01:15;;;;;;;15.13;12.70;;;;;;;7.21;73.93;100679.16;4987555;28;20071;-47
2022/09/30 03:03:57;;;;;;;13.82;12.25;;;;;;;7.24;73.79;100685.13;4976914;28;20033;-46
2022/09/30 03:06:24;;;;;;;14.45;12.52;;;;;;;7.14;73.68;100683.03;4999970;28;20041;-48
2022/09/30 03:08:51;;;;;;;16.70;12.23;;;;;;;7.11;74.41;100683.19;4974530;28;20046;-47
2022/09/30 03:11:22;;;;;;;13.55;12.15;;;;;;;7.07;74.46;100689.59;4972720;28;20030;-49
2022/09/30 03:14:03;;;;;;;14.90;12.38;;;;;;;7.14;74.16;100693.59;4991395;28;20393;-47
2022/09/30 03:17:05;;;;;;;15.73;12.57;;;;;;;7.17;74.00;100699.59;4989948;28;20893;-48
2022/09/30 03:19:49;;;;;;;15.30;12.60;;;;;;;7.11;73.71;100694.63;4990145;28;20029;-48
2022/09/30 03:22:54;;;;;;;15.30;12.23;;;;;;;7.08;73.59;100692.13;4988902;28;20069;-49
2022/09/30 03:25:42;;;;;;;15.52;12.15;;;;;;;7.08;74.15;100693.94;4998918;28;20113;-50
2022/09/30 03:28:43;;;;;;;14.95;13.32;;;;;;;7.04;74.17;100701.16;4990207;28;20055;-48
2022/09/30 03:31:24;;;;;;;14.60;13.10;;;;;;;7.03;74.43;100699.47;5003928;28;20031;-51
2022/09/30 03:33:59;;;;;;;16.25;13.10;;;;;;;7.00;74.04;100699.59;4971444;28;20053;-50
2022/09/30 03:36:39;;;;;;;18.83;12.85;;;;;;;7.03;74.31;100702.97;5000443;28;20460;-48
2022/09/30 03:39:24;;;;;;;18.42;14.73;;;;;;;6.92;74.81;100696.50;4979693;28;20038;-48
2022/09/30 03:41:56;;;;;;;15.48;13.98;;;;;;;6.92;74.95;100700.00;4989178;28;20026;-50
2022/09/30 03:44:29;;;;;;;20.50;13.88;;;;;;;6.90;74.34;100698.34;4989552;28;20035;-48
2022/09/30 03:47:01;;;;;;;16.48;13.60;;;;;;;6.92;75.00;100704.44;4989530;28;20563;-49
2022/09/30 03:49:32;;;;;;;23.55;15.13;;;;;;;6.83;75.09;100706.59;4972420;28;20027;-48
2022/09/30 03:52:03;;;;;;;18.95;13.98;;;;;;;6.88;75.50;100705.50;4989094;28;20030;-47
2022/09/30 03:54:30;;;;;;;17.25;14.48;;;;;;;6.81;75.38;100708.44;4988976;28;20423;-49
2022/09/30 03:56:55;;;;;;;18.83;13.98;;;;;;;6.81;74.94;100721.66;4987773;28;20018;-47
2022/09/30 03:59:27;;;;;;;17.35;13.93;;;;;;;6.81;75.04;100724.31;4969960;28;20030;-48
2022/09/30 04:01:53;;;;;;;16.45;14.65;;;;;;;6.77;75.55;100721.91;4981025;28;20026;-47
2022/09/30 04:04:20;;;;;;;16.75;14.75;;;;;;;6.63;76.50;100719.94;4981177;28;20498;-48
2022/09/30 04:06:47;;;;;;;17.63;14.55;;;;;;;6.72;76.27;100729.22;4993967;28;20022;-46
2022/09/30 04:09:13;;;;;;;18.38;15.10;;;;;;;6.70;76.65;100733.69;4988768;28;20497;-47
2022/09/30 04:11:41;;;;;;;20.27;14.68;;;;;;;6.67;76.35;100732.06;4971394;28;20041;-47
2022/09/30 04:14:07;;;;;;;16.55;14.82;;;;;;;6.65;76.54;100743.63;4972285;28;20508;-47
2022/09/30 04:16:33;;;;;;;18.20;14.82;;;;;;;6.58;76.34;100738.66;4971642;28;20038;-51
2022/09/30 04:18:59;;;;;;;16.27;14.40;;;;;;;6.57;76.93;100754.59;4990157;28;20048;-47
2022/09/30 04:21:27;;;;;;;19.70;15.35;;;;;;;6.57;76.75;100762.50;4973064;28;20042;-46
2022/09/30 04:23:53;;;;;;;16.90;14.63;;;;;;;6.58;76.64;100773.00;4953356;28;20026;-47
2022/09/30 04:26:19;;;;;;;23.20;15.77;;;;;;;6.55;76.74;100775.78;4991982;28;20026;-46
2022/09/30 04:28:45;;;;;;;17.42;14.57;;;;;;;6.60;77.28;100779.06;4990650;28;20504;-48
2022/09/30 04:31:11;;;;;;;15.75;14.05;;;;;;;6.56;76.64;100781.94;4988678;28;20060;-47
2022/09/30 04:33:39;;;;;;;17.80;15.80;;;;;;;6.45;77.46;100779.81;4988328;28;20054;-47
2022/09/30 04:36:06;;;;;;;18.13;15.15;;;;;;;6.49;77.33;100776.06;4997598;28;20092;-48
2022/09/30 04:38:33;;;;;;;17.17;15.38;;;;;;;6.51;77.64;100770.75;4990052;28;20030;-48
2022/09/30 04:41:03;;;;;;;18.08;16.10;;;;;;;6.44;77.64;100764.00;4971006;28;20038;-48
2022/09/30 04:43:28;;;;;;;17.25;15.57;;;;;;;6.51;77.75;100768.09;4970448;28;20035;-48
2022/09/30 04:45:54;;;;;;;16.98;15.23;;;;;;;6.51;77.62;100770.75;4971281;28;20041;-47
2022/09/30 04:48:22;;;;;;;16.90;15.30;;;;;;;6.52;77.34;100781.22;4995816;28;20477;-48
2022/09/30 04:50:49;;;;;;;18.10;16.33;;;;;;;6.51;77.31;100784.81;5001912;28;20038;-47
2022/09/30 04:53:14;;;;;;;17.45;15.57;;;;;;;6.49;76.64;100773.44;4988410;28;20026;-48
2022/09/30 04:55:43;;;;;;;17.27;15.45;;;;;;;6.50;76.75;100791.03;4988302;28;20022;-47
2022/09/30 04:58:11;;;;;;;17.40;15.45;;;;;;;6.49;76.79;100789.28;4971087;28;20026;-50
2022/09/30 05:00:37;;;;;;;17.45;14.95;;;;;;;6.45;76.70;100786.88;4986984;28;20101;-47
2022/09/30 05:03:03;;;;;;;17.25;15.50;;;;;;;6.41;77.06;100794.06;4999784;28;20051;-46
2022/09/30 05:05:32;;;;;;;21.08;16.88;;;;;;;6.36;77.40;100796.09;4991841;28;20429;-47
2022/09/30 05:08:04;;;;;;;22.85;15.95;;;;;;;6.40;77.13;100792.38;4992820;28;20045;-48
2022/09/30 05:10:30;;;;;;;17.90;16.13;;;;;;;6.37;76.66;100798.66;5052519;28;20051;-47
2022/09/30 05:12:59;;;;;;;17.55;15.73;;;;;;;6.30;76.83;100797.22;5054283;28;20025;-50
2022/09/30 05:15:27;;;;;;;18.08;16.17;;;;;;;6.31;76.81;100795.44;5035364;28;20068;-48
2022/09/30 05:17:55;;;;;;;19.80;16.25;;;;;;;6.31;77.12;100800.72;5052370;28;20032;-48
2022/09/30 05:20:20;;;;;;;17.25;15.45;;;;;;;6.32;77.38;100803.31;5032524;28;20037;-47
2022/09/30 05:22:46;;;;;;;18.33;15.75;;;;;;;6.25;77.53;100801.84;5050188;28;20029;-47
2022/09/30 05:25:11;;;;;;;20.35;15.70;;;;;;;6.29;77.38;100803.41;5053357;28;20086;-48
2022/09/30 05:27:37;;;;;;;18.20;16.30;;;;;;;6.17;77.45;100811.06;5057429;28;20108;-47
2022/09/30 05:30:03;;;;;;;18.10;16.30;;;;;;;6.24;77.79;100817.78;5052702;28;20090;-48
2022/09/30 05:32:29;;;;;;;18.70;16.80;;;;;;;6.21;77.37;100802.94;5053872;28;20036;-47
2022/09/30 05:34:54;;;;;;;17.83;15.98;;;;;;;6.12;77.42;100806.00;5052188;28;20029;-47
2022/09/30 05:37:20;;;;;;;23.10;15.68;;;;;;;6.13;77.48;100805.06;5057631;28;20025;-46
2022/09/30 05:39:46;;;;;;;18.60;16.55;;;;;;;6.20;77.78;100817.03;5053069;28;20380;-50
2022/09/30 05:42:11;;;;;;;17.50;15.70;;;;;;;6.18;77.15;100820.69;5060410;28;20074;-47
2022/09/30 05:44:39;;;;;;;18.25;16.38;;;;;;;6.14;77.66;100828.75;5065565;28;20032;-48
2022/09/30 05:47:05;;;;;;;17.23;15.48;;;;;;;6.12;77.98;100830.63;5065043;28;20036;-48
2022/09/30 05:49:33;;;;;;;17.50;15.65;;;;;;;6.04;78.32;100839.81;5053871;28;20025;-49
2022/09/30 05:51:59;;;;;;;18.20;16.30;;;;;;;6.14;77.81;100849.88;5051798;28;20033;-47
2022/09/30 05:54:25;;;;;;;17.95;16.05;;;;;;;6.13;78.12;100858.72;5052692;28;20041;-47
2022/09/30 05:56:51;;;;;;;18.00;16.10;;;;;;;6.17;78.28;100854.16;5073927;28;20025;-46
2022/09/30 05:59:17;;;;;;;18.65;16.60;;;;;;;6.14;78.98;100857.78;5052884;28;20551;-47
2022/09/30 06:01:43;;;;;;;21.95;16.17;;;;;;;6.12;78.90;100850.88;5054052;28;20075;-48
2022/09/30 06:04:09;;;;;;;18.63;16.73;;;;;;;6.11;79.57;100859.72;5052597;28;20056;-51
2022/09/30 06:06:34;;;;;;;18.77;15.98;;;;;;;6.14;79.44;100865.72;5056089;28;20036;-48
2022/09/30 06:09:02;;;;;;;18.23;16.30;;;;;;;6.18;78.96;100869.09;5024358;28;20047;-47
2022/09/30 06:11:28;;;;;;;18.58;16.65;;;;;;;6.10;79.14;100876.50;4991692;28;20058;-48
2022/09/30 06:13:53;;;;;;;18.98;17.05;;;;;;;6.12;79.42;100870.22;4991218;28;20096;-48
2022/09/30 06:16:19;;;;;;;18.00;16.20;;;;;;;6.18;79.95;100873.50;4975181;28;20066;-49
2022/09/30 06:18:47;;;;;;;18.05;16.20;;;;;;;6.20;79.56;100872.50;4988616;28;20038;-48
2022/09/30 06:21:14;;;;;;;18.67;16.88;;;;;;;6.24;80.92;100875.88;4991387;28;20033;-48
2022/09/30 06:23:42;;;;;;;18.13;16.30;;;;;;;6.28;80.78;100880.94;4991145;28;20052;-47
2022/09/30 06:26:10;;;;;;;21.35;18.17;;;;;;;6.32;80.96;100871.97;4991855;28;20500;-48
2022/09/30 06:28:36;;;;;;;18.98;17.00;;;;;;;6.36;81.58;100885.91;4976875;28;20035;-51
2022/09/30 06:31:02;;;;;;;19.88;17.60;;;;;;;6.43;82.22;100883.81;4971855;28;20041;-50
2022/09/30 06:33:28;;;;;;;20.67;17.05;;;;;;;6.45;82.10;100882.00;4971005;28;20030;-47
2022/09/30 06:35:54;;;;;;;18.98;17.08;;;;;;;6.43;82.49;100884.69;4971656;28;20377;-46
2022/09/30 06:38:21;;;;;;;20.83;18.65;;;;;;;6.49;83.53;100879.13;4971536;28;20042;-47
2022/09/30 06:40:49;;;;;;;20.90;18.77;;;;;;;6.51;84.88;100874.63;4971719;28;20574;-48
2022/09/30 06:43:18;;;;;;;19.75;17.63;;;;;;;6.64;84.99;100872.28;4969984;28;20105;-49
2022/09/30 06:45:50;;;;;;;21.10;18.70;;;;;;;6.67;84.64;100873.91;4971614;28;20027;-50
2022/09/30 06:48:16;;;;;;;22.25;19.80;;;;;;;6.71;85.84;100871.06;4972680;28;20385;-47
2022/09/30 06:50:43;;;;;;;24.80;22.17;;;;;;;6.75;86.53;100869.13;4969647;28;20362;-47
2022/09/30 06:53:10;;;;;;;27.08;22.70;;;;;;;6.78;87.03;100872.50;4971597;28;20030;-48
2022/09/30 06:55:37;;;;;;;25.27;22.02;;;;;;;6.79;87.74;100870.69;4970430;28;20022;-48
2022/09/30 06:58:07;;;;;;;27.10;22.90;;;;;;;6.90;87.42;100871.06;4972474;28;20031;-47
2022/09/30 07:00:33;;;;;;;29.05;22.77;;;;;;;6.92;88.16;100874.50;4971437;28;20026;-47
2022/09/30 07:02:58;;;;;;;29.63;24.52;;;;;;;6.94;88.47;100872.63;4985325;28;20461;-48
2022/09/30 07:05:25;;;;;;;32.42;24.48;;;;;;;7.00;88.51;100874.09;4990052;28;20038;-48
2022/09/30 07:07:51;;;;;;;35.17;26.13;;;;;;;7.03;88.84;100874.84;4973348;28;20026;-47
2022/09/30 07:10:17;;;;;;;31.90;25.35;;;;;;;7.07;89.14;100880.84;4988585;28;20069;-47
2022/09/30 07:12:43;;;;;;;37.40;27.50;;;;;;;7.11;89.86;100884.19;4991567;28;20448;-47
2022/09/30 07:15:09;;;;;;;29.90;25.45;;;;;;;7.15;89.70;100876.03;4990679;28;20038;-47
2022/09/30 07:17:34;;;;;;;33.58;26.98;;;;;;;7.23;90.29;100873.00;4972806;28;20374;-47
2022/09/30 07:20:02;;;;;;;31.65;26.00;;;;;;;7.30;90.42;100871.78;4989426;28;20473;-47
2022/09/30 07:22:30;;;;;;;33.38;25.70;;;;;;;7.34;90.31;100870.69;4991392;28;20038;-46
2022/09/30 07:24:57;;;;;;;33.90;28.30;;;;;;;7.40;90.50;100874.81;5004382;28;20034;-47
2022/09/30 07:27:24;;;;;;;33.22;28.08;;;;;;;7.43;90.74;100880.81;5009581;28;20061;-48
2022/09/30 07:29:50;;;;;;;32.90;27.83;;;;;;;7.43;90.50;100872.88;5009625;28;20048;-49
2022/09/30 07:32:18;;;;;;;36.03;26.55;;;;;;;7.54;90.43;100888.22;4992481;28;20029;-48
2022/09/30 07:34:44;;;;;;;32.72;28.55;;;;;;;7.53;90.63;100885.66;5007220;28;20433;-49
2022/09/30 07:37:13;;;;;;;30.60;27.25;;;;;;;7.65;90.54;100890.34;5009452;28;20113;-51
2022/09/30 07:39:43;;;;;;;36.88;29.33;;;;;;;7.74;90.68;100888.09;5009624;28;20021;-47
2022/09/30 07:42:13;;;;;;;31.58;26.38;;;;;;;7.85;90.29;100894.63;4990305;28;20026;-49
2022/09/30 07:44:42;;;;;;;31.02;27.40;;;;;;;7.93;90.54;100897.75;5009372;28;20022;-48
2022/09/30 07:47:13;;;;;;;29.75;26.08;;;;;;;7.84;90.22;100877.88;4992355;28;20022;-48
2022/09/30 07:49:40;;;;;;;29.55;25.05;;;;;;;8.06;90.71;100888.25;5008837;28;20070;-50
2022/09/30 07:52:05;;;;;;;32.50;27.80;;;;;;;8.14;90.64;100890.47;5009778;28;20104;-47
2022/09/30 07:54:33;;;;;;;29.83;26.25;;;;;;;8.23;90.41;100882.03;4989591;28;20121;-48
2022/09/30 07:57:00;;;;;;;33.53;26.17;;;;;;;8.30;90.30;100886.09;4993915;28;20439;-47
2022/09/30 07:59:30;;;;;;;29.98;26.75;;;;;;;8.38;90.21;100885.66;4989804;28;20026;-47
2022/09/30 08:01:57;;;;;;;30.73;26.13;;;;;;;8.48;90.18;100886.94;4991550;28;20101;-48
2022/09/30 08:04:24;;;;;;;29.52;26.50;;;;;;;8.59;90.08;100892.53;4999357;28;20027;-48
2022/09/30 08:06:54;;;;;;;30.20;26.30;;;;;;;8.69;89.77;100886.72;4995884;28;20026;-47
2022/09/30 08:09:21;;;;;;;33.30;26.27;;;;;;;8.77;89.12;100882.69;5008995;28;20078;-48
2022/09/30 08:11:48;;;;;;;33.22;27.05;;;;;;;8.92;89.02;100883.66;5009421;28;20026;-49
2022/09/30 08:14:15;;;;;;;35.17;28.77;;;;;;;9.02;88.36;100887.47;5009144;28;20079;-48
2022/09/30 08:16:41;;;;;;;35.25;29.17;;;;;;;9.12;87.54;100890.50;5007400;28;20041;-48
2022/09/30 08:19:12;;;;;;;32.92;29.27;;;;;;;9.29;88.00;100885.09;5008825;28;20030;-48
2022/09/30 08:21:38;;;;;;;37.05;30.17;;;;;;;9.44;88.05;100890.44;5008370;28;20026;-48
2022/09/30 08:24:07;;;;;;;34.63;30.35;;;;;;;9.58;86.94;100895.81;4989753;28;20030;-49
2022/09/30 08:26:32;;;;;;;35.63;28.05;;;;;;;9.63;86.83;100871.66;4989681;28;20038;-49
2022/09/30 08:28:59;;;;;;;33.15;29.15;;;;;;;9.88;86.33;100895.84;4974174;28;20033;-49
2022/09/30 08:31:25;;;;;;;35.58;27.95;;;;;;;10.00;86.36;100891.59;4989294;28;20038;-49
2022/09/30 08:33:50;;;;;;;33.40;29.17;;;;;;;10.08;86.20;100891.94;4988709;28;20046;-52
2022/09/30 08:36:22;;;;;;;30.88;27.58;;;;;;;10.21;85.98;100897.41;4989308;28;20088;-49
2022/09/30 08:38:48;;;;;;;32.78;28.75;;;;;;;10.21;85.99;100881.47;4989164;28;20023;-47
2022/09/30 08:41:38;;;;;;;31.30;27.85;;;;;;;10.41;85.86;100888.22;4989658;28;20054;-47
2022/09/30 08:44:25;;;;;;;28.52;25.50;;;;;;;10.53;85.51;100889.25;4971544;28;20040;-48
2022/09/30 08:47:20;;;;;;;31.10;25.88;;;;;;;10.57;85.69;100890.78;4988977;28;20027;-48
2022/09/30 08:49:59;;;;;;;28.50;23.20;;;;;;;10.67;85.59;100892.75;4989836;28;20038;-49
2022/09/30 08:52:34;;;;;;;28.33;25.02;;;;;;;10.68;86.06;100883.84;4986901;28;20022;-50
2022/09/30 08:55:00;;;;;;;31.25;25.88;;;;;;;10.80;86.20;100894.69;4986157;28;20370;-49
2022/09/30 08:57:33;;;;;;;28.90;25.77;;;;;;;10.96;85.86;100899.88;4989799;28;20030;-50
2022/09/30 09:00:04;;;;;;;30.30;24.23;;;;;;;11.11;85.58;100898.88;4984955;28;20035;-52
2022/09/30 09:02:33;;;;;;;44.08;33.78;;;;;;;11.27;85.47;100902.28;4969109;28;20231;-50
2022/09/30 09:05:05;;;;;;;28.70;23.63;;;;;;;11.49;84.85;100903.50;4972374;28;20034;-49
2022/09/30 09:07:43;;;;;;;27.02;24.13;;;;;;;11.77;84.30;100899.88;4985834;28;20023;-49
2022/09/30 09:10:32;;;;;;;25.85;23.15;;;;;;;11.99;83.48;100886.81;4989420;28;20053;-49
2022/09/30 09:13:04;;;;;;;24.50;21.52;;;;;;;12.19;81.63;100879.28;4998854;28;20091;-51
2022/09/30 09:15:44;;;;;;;21.80;19.65;;;;;;;12.32;81.97;100881.94;4970653;28;20051;-52
2022/09/30 09:18:21;;;;;;;25.25;19.65;;;;;;;12.45;81.13;100888.97;4986972;28;20033;-49
2022/09/30 09:20:53;;;;;;;22.58;19.38;;;;;;;12.61;80.93;100891.41;4987489;28;20113;-51
2022/09/30 09:23:20;;;;;;;20.90;18.48;;;;;;;12.80;80.78;100890.97;4987317;28;20052;-47
2022/09/30 09:25:51;;;;;;;18.95;16.88;;;;;;;13.01;80.01;100893.03;4969779;28;20034;-51
2022/09/30 09:28:35;;;;;;;21.90;17.52;;;;;;;13.24;80.54;100897.56;4989217;28;20538;-50
2022/09/30 09:31:02;;;;;;;17.05;15.27;;;;;;;13.37;78.20;100884.16;4987917;28;20076;-50
2022/09/30 09:33:35;;;;;;;16.73;14.00;;;;;;;13.43;76.97;100901.56;4968342;28;20476;-52
2022/09/30 09:36:06;;;;;;;14.75;13.18;;;;;;;13.61;77.50;100906.38;4985318;28;20481;-51
2022/09/30 09:38:45;;;;;;;15.35;13.63;;;;;;;13.85;76.11;100908.16;4989894;28;20442;-49
2022/09/30 09:41:29;;;;;;;16.95;13.90;;;;;;;14.00;76.14;100916.84;4988016;28;20072;-51
2022/09/30 09:44:17;;;;;;;15.32;13.82;;;;;;;14.13;75.34;100911.44;4980614;28;20054;-53
2022/09/30 09:47:04;;;;;;;15.25;13.65;;;;;;;14.53;75.24;100898.50;4982366;28;20434;-53
2022/09/30 09:49:38;;;;;;;14.13;12.73;;;;;;;14.61;73.19;100890.69;4982315;28;20025;-53
2022/09/30 09:52:11;;;;;;;14.90;13.40;;;;;;;14.84;73.19;100899.56;4975992;28;20027;-48
2022/09/30 09:54:43;;;;;;;15.52;13.85;;;;;;;14.78;71.08;100897.41;5004595;28;20069;-52
2022/09/30 09:57:11;;;;;;;17.98;13.57;;;;;;;14.77;71.68;100885.00;4989087;28;20038;-53
2022/09/30 09:59:55;;;;;;;11.93;10.73;;;;;;;14.87;70.68;100885.94;4989749;28;20438;-50
2022/09/30 10:02:30;;;;;;;10.98;9.93;;;;;;;15.03;69.49;100888.25;4975570;28;20034;-51
2022/09/30 10:05:01;;;;;;;10.35;9.30;;;;;;;15.21;70.60;100888.56;4972143;28;20046;-51
2022/09/30 10:07:29;;;;;;;11.20;10.10;;;;;;;15.45;70.14;100885.69;4967405;28;20041;-50
2022/09/30 10:10:18;;;;;;;11.25;10.15;;;;;;;15.90;69.56;100899.78;4991475;28;20112;-50
2022/09/30 10:12:46;;;;;;;13.68;8.27;;;;;;;16.01;66.31;100888.13;4961830;28;20050;-57
2022/09/30 10:15:26;;;;;;;11.15;8.32;;;;;;;16.12;66.40;100885.41;4989942;28;20439;-60
2022/09/30 10:17:55;;;;;;;9.20;8.30;;;;;;;16.23;64.74;100889.81;4988661;28;20030;-54
2022/09/30 10:20:27;;;;;;;11.75;8.45;;;;;;;16.28;64.65;100898.34;4990870;28;20114;-55
2022/09/30 10:23:07;;;;;;;9.40;7.68;;;;;;;16.50;65.04;100897.34;4991423;28;20488;-59
2022/09/30 10:25:33;;;;;;;8.23;7.43;;;;;;;16.65;61.76;100902.31;4967040;28;20041;-54
2022/09/30 10:28:02;;;;;;;8.65;7.82;;;;;;;16.71;60.46;100913.41;4994499;28;20430;-53
2022/09/30 10:30:34;;;;;;;8.48;6.97;;;;;;;16.75;61.13;100897.84;4990366;28;20117;-54
2022/09/30 10:33:03;;;;;;;9.85;7.60;;;;;;;16.80;60.15;100899.19;5009741;28;20040;-54
2022/09/30 10:35:28;;;;;;;8.82;7.07;;;;;;;16.92;60.19;100897.25;4992609;28;20037;-54
2022/09/30 10:37:58;;;;;;;7.93;7.13;;;;;;;17.12;60.54;100902.66;4976905;28;20038;-54
2022/09/30 10:40:26;;;;;;;;;;;;;;;17.51;61.37;100905.44;4996147;28;20030;-54
2022/09/30 10:42:52;;;;;;;11.60;6.93;;;;;;;17.48;58.28;100901.19;4990658;28;19910;-55
2022/09/30 10:45:37;;;;;;;8.25;6.18;;;;;;;17.62;58.95;100911.53;4990786;28;20527;-55
2022/09/30 10:48:07;;;;;;;8.65;6.07;;;;;;;17.79;57.42;100895.69;4990947;28;20058;-55
2022/09/30 10:50:38;;;;;;;6.97;5.07;;;;;;;18.24;54.57;100898.59;5002222;28;20061;-56
2022/09/30 10:53:16;;;;;;;5.10;4.55;;;;;;;18.62;55.46;100907.56;4993016;28;20445;-56
2022/09/30 10:55:44;;;;;;;6.18;4.72;;;;;;;18.60;53.37;100896.94;5010305;28;20037;-55
2022/09/30 10:58:30;;;;;;;4.95;4.47;;;;;;;19.13;54.12;100900.81;4992808;28;20030;-56
2022/09/30 11:01:08;;;;;;;4.40;4.00;;;;;;;19.78;51.01;100914.16;4998016;28;20031;-56
2022/09/30 11:03:54;;;;;;;7.07;3.53;;;;;;;19.84;49.80;100912.69;4990542;28;20019;-56
2022/09/30 11:06:21;;;;;;;3.38;3.05;;;;;;;19.84;47.93;100902.72;4990791;28;20503;-55
2022/09/30 11:08:54;;;;;;;2.92;2.63;;;;;;;19.99;46.64;100913.81;4990377;28;20042;-55
2022/09/30 11:11:26;;;;;;;2.78;2.45;;;;;;;19.67;47.28;100895.50;4991568;28;20057;-56
2022/09/30 11:14:11;;;;;;;4.20;2.70;;;;;;;19.88;47.99;100895.16;5005649;28;20034;-55
2022/09/30 11:17:02;;;;;;;4.85;2.83;;;;;;;20.30;48.76;100887.22;4979780;28;20454;-56
2022/09/30 11:19:49;;;;;;;2.90;2.70;;;;;;;21.14;46.79;100892.88;4990119;28;20030;-56
2022/09/30 11:22:31;;;;;;;4.22;3.08;;;;;;;21.19;46.07;100887.81;4990696;28;20377;-56
2022/09/30 11:24:59;;;;;;;4.03;3.08;;;;;;;21.47;44.66;100897.38;4989988;28;20038;-55
2022/09/30 11:27:50;;;;;;;4.57;2.90;;;;;;;22.00;44.39;100893.34;4990211;28;20113;-56
2022/09/30 11:30:20;;;;;;;3.53;3.05;;;;;;;22.03;42.58;100896.72;4994908;28;20280;-56
2022/09/30 11:32:55;;;;;;;3.22;2.75;;;;;;;21.62;42.86;100899.41;5009646;28;20026;-56
2022/09/30 11:35:43;;;;;;;2.80;2.50;;;;;;;20.90;45.84;100890.94;5009357;28;20105;-56
2022/09/30 11:38:33;;;;;;;3.33;3.03;;;;;;;19.67;47.53;100880.13;4992190;28;20029;-56
2022/09/30 11:41:07;;;;;;;4.50;2.88;;;;;;;19.23;48.76;100885.41;4983736;28;20213;-56
2022/09/30 11:44:05;;;;;;;4.05;3.25;;;;;;;19.22;49.13;100881.03;4989852;28;20083;-56